Terminal Aerodrome Forecast
Issued by NWS

Home | Current Version | Previous Version | Text Only | Print | Product List | Glossary On
Versions: 1 2 3 4 5 6 7 8 9 10 11 12 13 14 15 16 17 18 19 20 21
000
FTUS46 KSEW 291700
TAFPAE
TAF
KPAE 291734Z 2918/3018 01003KT P6SM SCT001 SCT200
     FM292000 32003KT P6SM SCT200
     FM301200 08003KT 2SM BR SCT001
     FM301700 03002KT P6SM SKC=

USA.gov is the U.S. government's official web portal to all federal, state and local government web resources and services.